createdAt,value
2017-11-01T00:00:44.711Z,19.30
2017-11-01T00:01:44.698Z,19.33
2017-11-01T00:02:44.683Z,19.36
2017-11-01T00:03:44.668Z,19.36
2017-11-01T00:04:44.654Z,19.30
2017-11-01T00:05:44.641Z,19.33
2017-11-01T00:06:44.624Z,19.27
2017-11-01T00:07:44.610Z,19.29
2017-11-01T00:08:44.597Z,19.27
2017-11-01T00:09:44.583Z,19.30
2017-11-01T00:10:44.568Z,19.26
2017-11-01T00:11:44.554Z,19.34
2017-11-01T00:12:44.539Z,19.36
2017-11-01T00:13:44.525Z,19.33
2017-11-01T00:14:44.511Z,19.27
2017-11-01T00:15:44.501Z,19.30
2017-11-01T00:16:44.482Z,19.30
2017-11-01T00:17:44.467Z,19.27
2017-11-01T00:18:44.453Z,19.27
2017-11-01T00:19:44.438Z,19.24
2017-11-01T00:20:44.423Z,19.27
2017-11-01T00:21:44.409Z,19.24
2017-11-01T00:22:44.397Z,19.31
2017-11-01T00:23:44.380Z,19.26
2017-11-01T00:24:44.365Z,19.27
2017-11-01T00:25:44.353Z,19.29
2017-11-01T00:26:44.338Z,19.24
2017-11-01T00:27:44.323Z,19.29
2017-11-01T00:28:44.309Z,19.31
2017-11-01T00:29:44.301Z,19.18
2017-11-01T00:30:44.280Z,19.27
2017-11-01T00:31:44.265Z,19.29
2017-11-01T00:32:44.251Z,19.27
2017-11-01T00:33:44.243Z,19.31
2017-11-01T00:34:44.223Z,19.29
2017-11-01T00:35:44.208Z,19.31
2017-11-01T00:36:44.203Z,19.31
2017-11-01T00:37:44.179Z,19.26
2017-11-01T00:38:44.165Z,19.31
2017-11-01T00:39:44.149Z,19.27
2017-11-01T00:40:44.136Z,19.30
2017-11-01T00:41:44.122Z,19.29
2017-11-01T00:42:44.108Z,19.24
2017-11-01T00:43:44.091Z,19.31
2017-11-01T00:44:44.079Z,19.26
2017-11-01T00:45:44.064Z,19.26
2017-11-01T00:46:44.050Z,19.29
2017-11-01T00:47:44.035Z,19.26
2017-11-01T00:48:44.021Z,19.26
2017-11-01T00:49:44.006Z,19.22
2017-11-01T00:50:43.992Z,19.24
2017-11-01T00:51:43.977Z,19.27
2017-11-01T00:52:43.963Z,19.26
2017-11-01T00:53:43.949Z,19.29
2017-11-01T00:54:43.935Z,19.26
2017-11-01T00:55:43.919Z,19.26
2017-11-01T00:56:43.904Z,19.24
2017-11-01T00:57:43.892Z,19.27
2017-11-01T00:58:43.877Z,19.31
2017-11-01T00:59:43.862Z,19.22
2017-11-01T01:00:43.861Z,19.24
2017-11-01T01:01:43.834Z,19.19
2017-11-01T01:02:43.819Z,19.29
2017-11-01T01:03:43.804Z,19.29
2017-11-01T01:04:43.790Z,19.29
2017-11-01T01:05:43.779Z,19.33
2017-11-01T01:06:43.762Z,19.27
2017-11-01T01:07:43.745Z,19.26
2017-11-01T01:08:43.732Z,19.29
2017-11-01T01:09:43.718Z,19.21
2017-11-01T01:10:43.704Z,19.24
2017-11-01T01:11:43.689Z,19.22
2017-11-01T01:12:43.674Z,19.26
2017-11-01T01:13:43.660Z,19.19
2017-11-01T01:14:43.655Z,19.19
2017-11-01T01:15:43.631Z,19.29
2017-11-01T01:16:43.617Z,19.29
2017-11-01T01:17:43.603Z,19.21
2017-11-01T01:18:43.589Z,19.27
2017-11-01T01:19:43.573Z,19.29
2017-11-01T01:20:43.559Z,19.29
2017-11-01T01:21:43.545Z,19.26
2017-11-01T01:22:43.531Z,19.27
2017-11-01T01:23:43.516Z,19.26
2017-11-01T01:24:43.501Z,19.22
2017-11-01T01:25:43.487Z,19.37
2017-11-01T01:26:43.474Z,19.26
2017-11-01T01:27:43.458Z,19.21
2017-11-01T01:28:43.444Z,19.24
2017-11-01T01:29:43.429Z,19.19
2017-11-01T01:30:43.415Z,19.24
2017-11-01T01:31:43.401Z,19.19
2017-11-01T01:32:43.386Z,19.21
2017-11-01T01:33:43.372Z,19.29
2017-11-01T01:34:43.358Z,19.27
2017-11-01T01:35:43.343Z,19.26
2017-11-01T01:36:43.328Z,19.31
2017-11-01T01:37:43.314Z,19.30
2017-11-01T01:38:43.300Z,19.22
2017-11-01T01:39:43.290Z,19.21
2017-11-01T01:40:43.270Z,19.18
2017-11-01T01:41:43.256Z,19.14
2017-11-01T01:42:43.244Z,19.19
2017-11-01T01:43:43.226Z,19.18
2017-11-01T01:44:43.212Z,19.21
2017-11-01T01:45:43.199Z,19.19
2017-11-01T01:46:43.185Z,19.22
2017-11-01T01:47:43.170Z,19.22
2017-11-01T01:48:43.155Z,19.21
2017-11-01T01:49:43.140Z,19.27
2017-11-01T01:50:43.127Z,19.24
2017-11-01T01:51:43.111Z,19.26
2017-11-01T01:52:43.096Z,19.24
2017-11-01T01:53:43.083Z,19.22
2017-11-01T01:54:43.069Z,19.16
2017-11-01T01:55:43.053Z,19.22
2017-11-01T01:56:43.039Z,19.19
2017-11-01T01:57:43.025Z,19.22
2017-11-01T01:58:43.011Z,19.22
2017-11-01T01:59:42.996Z,19.27
2017-11-01T02:00:42.982Z,19.19
2017-11-01T02:01:42.974Z,19.21
2017-11-01T02:02:42.954Z,19.15
2017-11-01T02:03:42.937Z,19.24
2017-11-01T02:04:42.925Z,19.26
2017-11-01T02:05:42.910Z,19.21
2017-11-01T02:06:42.895Z,19.24
2017-11-01T02:07:42.883Z,19.18
2017-11-01T02:08:42.867Z,19.31
2017-11-01T02:09:42.853Z,19.16
2017-11-01T02:10:42.842Z,19.24
2017-11-01T02:11:42.823Z,19.18
2017-11-01T02:12:42.814Z,19.19
2017-11-01T02:13:42.794Z,19.18
2017-11-01T02:14:42.780Z,19.21
2017-11-01T02:15:42.764Z,19.22
2017-11-01T02:16:42.751Z,19.21
2017-11-01T02:17:42.736Z,19.19
2017-11-01T02:18:42.722Z,19.21
2017-11-01T02:19:42.706Z,19.16
2017-11-01T02:20:42.693Z,19.26
2017-11-01T02:21:42.678Z,19.29
2017-11-01T02:22:42.664Z,19.26
2017-11-01T02:23:42.649Z,19.24
2017-11-01T02:24:42.635Z,19.29
2017-11-01T02:25:42.620Z,19.16
2017-11-01T02:26:42.607Z,19.19
2017-11-01T02:27:42.590Z,19.27
2017-11-01T02:28:42.581Z,19.21
2017-11-01T02:29:42.563Z,19.24
2017-11-01T02:30:42.550Z,19.24
2017-11-01T02:31:42.534Z,19.15
2017-11-01T02:32:42.519Z,19.19
2017-11-01T02:33:42.506Z,19.18
2017-11-01T02:34:42.491Z,19.21
2017-11-01T02:35:42.476Z,19.21
2017-11-01T02:36:42.461Z,19.18
2017-11-01T02:37:42.448Z,19.22
2017-11-01T02:38:42.433Z,19.29
2017-11-01T02:39:42.418Z,19.22
2017-11-01T02:40:42.407Z,19.22
2017-11-01T02:41:42.390Z,19.15
2017-11-01T02:42:42.376Z,19.16
2017-11-01T02:43:42.360Z,19.15
2017-11-01T02:44:42.346Z,19.22
2017-11-01T02:45:42.332Z,19.21
2017-11-01T02:46:42.318Z,19.21
2017-11-01T02:47:42.310Z,19.22
2017-11-01T02:48:42.287Z,19.21
2017-11-01T02:49:42.275Z,19.15
2017-11-01T02:50:42.260Z,19.27
2017-11-01T02:51:42.245Z,19.22
2017-11-01T02:52:42.231Z,19.18
2017-11-01T02:53:42.216Z,19.30
2017-11-01T02:54:42.202Z,19.19
2017-11-01T02:55:42.186Z,19.21
2017-11-01T02:56:42.173Z,19.18
2017-11-01T02:57:42.158Z,19.19
2017-11-01T02:58:42.182Z,19.26
2017-11-01T02:59:42.128Z,19.15
2017-11-01T03:00:42.115Z,19.21
2017-11-01T03:01:42.101Z,19.21
2017-11-01T03:02:42.094Z,19.22
2017-11-01T03:03:42.072Z,19.18
2017-11-01T03:04:42.056Z,19.24
2017-11-01T03:05:42.043Z,19.18
2017-11-01T03:06:42.028Z,19.18
2017-11-01T03:07:42.014Z,19.22
2017-11-01T03:08:42.000Z,19.24
2017-11-01T03:09:41.985Z,19.19
2017-11-01T03:10:41.971Z,19.19
2017-11-01T03:11:41.956Z,19.21
2017-11-01T03:12:41.944Z,19.18
2017-11-01T03:13:41.931Z,19.15
2017-11-01T03:14:41.914Z,19.19
2017-11-01T03:15:41.898Z,19.16
2017-11-01T03:16:41.887Z,19.19
2017-11-01T03:17:41.869Z,19.15
2017-11-01T03:18:41.856Z,19.24
2017-11-01T03:19:41.841Z,19.16
2017-11-01T03:20:41.826Z,19.16
2017-11-01T03:21:41.811Z,19.19
2017-11-01T03:22:41.798Z,19.26
2017-11-01T03:23:41.782Z,19.26
2017-11-01T03:24:41.768Z,19.19
2017-11-01T03:25:41.755Z,19.29
2017-11-01T03:26:41.740Z,19.19
2017-11-01T03:27:41.725Z,19.19
2017-11-01T03:28:41.710Z,19.18
2017-11-01T03:29:41.696Z,19.21
2017-11-01T03:30:41.683Z,19.16
2017-11-01T03:31:41.667Z,19.21
2017-11-01T03:32:41.653Z,19.19
2017-11-01T03:33:41.638Z,19.18
2017-11-01T03:34:41.624Z,19.19
2017-11-01T03:35:41.609Z,19.19
2017-11-01T03:36:41.594Z,19.19
2017-11-01T03:37:41.580Z,19.15
2017-11-01T03:38:41.574Z,19.29
2017-11-01T03:39:41.551Z,19.31
2017-11-01T03:40:41.536Z,19.24
2017-11-01T03:41:41.523Z,19.15
2017-11-01T03:42:41.508Z,19.22
2017-11-01T03:43:41.494Z,19.26
2017-11-01T03:44:41.482Z,19.30
2017-11-01T03:45:41.464Z,19.30
2017-11-01T03:46:41.451Z,19.34
2017-11-01T03:47:41.435Z,19.27
2017-11-01T03:48:41.421Z,19.30
2017-11-01T03:49:41.409Z,19.33
2017-11-01T03:50:41.392Z,19.34
2017-11-01T03:51:41.377Z,19.31
2017-11-01T03:52:41.364Z,19.36
2017-11-01T03:53:41.349Z,19.36
2017-11-01T03:54:41.335Z,19.47
2017-11-01T03:55:41.320Z,19.51
2017-11-01T03:56:41.305Z,19.44
2017-11-01T03:57:41.291Z,19.40
2017-11-01T03:58:41.278Z,19.54
2017-11-01T03:59:41.263Z,19.51
2017-11-01T04:00:41.249Z,19.55
2017-11-01T04:01:41.234Z,19.58
2017-11-01T04:02:41.220Z,19.56
2017-11-01T04:03:41.205Z,19.52
2017-11-01T04:04:41.191Z,19.52
2017-11-01T04:05:41.177Z,19.52
2017-11-01T04:06:41.162Z,19.55
2017-11-01T04:07:41.148Z,19.59
2017-11-01T04:08:41.134Z,19.55
2017-11-01T04:09:41.120Z,19.45
2017-11-01T04:10:41.106Z,19.55
2017-11-01T04:11:41.092Z,19.63
2017-11-01T04:12:41.076Z,19.58
2017-11-01T04:13:41.063Z,19.54
2017-11-01T04:14:41.049Z,19.59
2017-11-01T04:15:41.034Z,19.56
2017-11-01T04:16:41.020Z,19.58
2017-11-01T04:17:41.006Z,19.59
2017-11-01T04:18:40.992Z,19.67
2017-11-01T04:19:40.976Z,19.64
2017-11-01T04:20:40.962Z,19.62
2017-11-01T04:21:40.948Z,19.55
2017-11-01T04:22:40.934Z,19.56
2017-11-01T04:23:40.920Z,19.70
2017-11-01T04:24:40.909Z,19.63
2017-11-01T04:25:40.891Z,19.66
2017-11-01T04:26:40.928Z,19.56
2017-11-01T04:27:40.871Z,19.63
2017-11-01T04:28:40.850Z,19.64
2017-11-01T04:29:40.834Z,19.66
2017-11-01T04:30:40.822Z,19.58
2017-11-01T04:31:40.806Z,19.58
2017-11-01T04:32:40.792Z,19.59
2017-11-01T04:33:40.779Z,19.54
2017-11-01T04:34:40.771Z,19.54
2017-11-01T04:35:40.748Z,19.52
2017-11-01T04:36:40.736Z,19.54
2017-11-01T04:37:40.721Z,19.58
2017-11-01T04:38:40.708Z,19.56
2017-11-01T04:39:40.693Z,19.59
2017-11-01T04:40:40.679Z,19.67
2017-11-01T04:41:40.667Z,19.49
2017-11-01T04:42:40.650Z,19.54
2017-11-01T04:43:40.636Z,19.64
2017-11-01T04:44:40.622Z,19.56
2017-11-01T04:45:40.608Z,19.59
2017-11-01T04:46:40.594Z,19.56
2017-11-01T04:47:40.579Z,19.59
2017-11-01T04:48:40.565Z,19.59
2017-11-01T04:49:40.554Z,19.55
2017-11-01T04:50:40.536Z,19.55
2017-11-01T04:51:40.526Z,19.59
2017-11-01T04:52:40.508Z,19.56
2017-11-01T04:53:40.496Z,19.56
2017-11-01T04:54:40.480Z,19.63
2017-11-01T04:55:40.466Z,19.62
2017-11-01T04:56:40.451Z,19.59
2017-11-01T04:57:40.437Z,19.56
2017-11-01T04:58:40.423Z,19.63
2017-11-01T04:59:40.409Z,19.63
2017-11-01T05:00:40.395Z,19.62
2017-11-01T05:01:40.386Z,19.55
2017-11-01T05:02:40.366Z,19.63
2017-11-01T05:03:40.352Z,19.59
2017-11-01T05:04:40.338Z,19.59
2017-11-01T05:05:40.326Z,19.59
2017-11-01T05:06:40.310Z,19.59
2017-11-01T05:07:40.300Z,19.59
2017-11-01T05:08:40.281Z,19.58
2017-11-01T05:09:40.267Z,19.67
2017-11-01T05:10:40.253Z,19.54
2017-11-01T05:11:40.239Z,19.62
2017-11-01T05:12:40.224Z,19.66
2017-11-01T05:13:40.210Z,19.64
2017-11-01T05:14:40.196Z,19.59
2017-11-01T05:15:40.181Z,19.64
2017-11-01T05:16:40.167Z,19.56
2017-11-01T05:17:40.154Z,19.59
2017-11-01T05:18:40.140Z,19.63
2017-11-01T05:19:40.125Z,19.66
2017-11-01T05:20:40.112Z,19.59
2017-11-01T05:21:40.097Z,19.59
2017-11-01T05:22:40.083Z,19.64
2017-11-01T05:23:40.068Z,19.59
2017-11-01T05:24:40.071Z,19.49
2017-11-01T05:25:40.040Z,19.58
2017-11-01T05:26:40.028Z,19.66
2017-11-01T05:27:40.011Z,19.63
2017-11-01T05:28:39.997Z,19.66
2017-11-01T05:29:39.984Z,19.62
2017-11-01T05:30:39.968Z,19.45
2017-11-01T05:31:39.955Z,19.58
2017-11-01T05:32:39.940Z,19.59
2017-11-01T05:33:39.928Z,19.59
2017-11-01T05:34:39.913Z,19.55
2017-11-01T05:35:39.898Z,19.62
2017-11-01T05:36:39.884Z,19.54
2017-11-01T05:37:39.870Z,19.63
2017-11-01T05:38:39.856Z,19.59
2017-11-01T05:39:39.841Z,19.64
2017-11-01T05:40:39.827Z,19.64
2017-11-01T05:41:39.813Z,19.58
2017-11-01T05:42:39.799Z,19.63
2017-11-01T05:43:39.784Z,19.59
2017-11-01T05:44:39.770Z,19.63
2017-11-01T05:45:39.756Z,19.69
2017-11-01T05:46:39.743Z,19.62
2017-11-01T05:47:39.727Z,19.56
2017-11-01T05:48:39.713Z,19.59
2017-11-01T05:49:39.700Z,19.62
2017-11-01T05:50:39.686Z,19.58
2017-11-01T05:51:39.671Z,19.64
2017-11-01T05:52:39.657Z,19.64
2017-11-01T05:53:39.646Z,19.54
2017-11-01T05:54:39.629Z,19.67
2017-11-01T05:55:39.614Z,19.56
2017-11-01T05:56:39.600Z,19.59
2017-11-01T05:57:39.586Z,19.62
2017-11-01T05:58:39.573Z,19.58
2017-11-01T05:59:39.562Z,19.63
2017-11-01T06:00:39.544Z,19.66
2017-11-01T06:01:39.530Z,19.56
2017-11-01T06:02:39.519Z,19.58
2017-11-01T06:03:39.500Z,19.58
2017-11-01T06:04:39.486Z,19.64
2017-11-01T06:05:39.473Z,19.55
2017-11-01T06:06:39.459Z,19.63
2017-11-01T06:07:39.443Z,19.66
2017-11-01T06:08:39.429Z,19.49
2017-11-01T06:09:39.417Z,19.62
2017-11-01T06:10:39.402Z,19.64
2017-11-01T06:11:39.388Z,19.63
2017-11-01T06:12:39.373Z,19.58
2017-11-01T06:13:39.361Z,19.64
2017-11-01T06:14:39.345Z,19.67
2017-11-01T06:15:39.330Z,19.54
2017-11-01T06:16:39.317Z,19.59
2017-11-01T06:17:39.302Z,19.62
2017-11-01T06:18:39.290Z,19.56
2017-11-01T06:19:39.274Z,19.63
2017-11-01T06:20:39.260Z,19.62
2017-11-01T06:21:39.245Z,19.62
2017-11-01T06:22:39.232Z,19.62
2017-11-01T06:23:39.218Z,19.66
2017-11-01T06:24:39.205Z,19.63
2017-11-01T06:25:39.189Z,19.56
2017-11-01T06:26:39.176Z,19.66
2017-11-01T06:27:39.160Z,19.59
2017-11-01T06:28:39.146Z,19.64
2017-11-01T06:29:39.133Z,19.55
2017-11-01T06:30:39.118Z,19.59
2017-11-01T06:31:39.104Z,19.59
2017-11-01T06:32:39.090Z,19.55
2017-11-01T06:33:39.074Z,19.71
2017-11-01T06:34:39.062Z,19.67
2017-11-01T06:35:39.047Z,19.59
2017-11-01T06:36:39.035Z,19.59
2017-11-01T06:37:39.020Z,19.69
2017-11-01T06:38:39.006Z,19.71
2017-11-01T06:39:38.989Z,19.69
2017-11-01T06:40:38.976Z,19.64
2017-11-01T06:41:38.963Z,19.58
2017-11-01T06:42:38.948Z,19.70
2017-11-01T06:43:38.933Z,19.63
2017-11-01T06:44:38.919Z,19.63
2017-11-01T06:45:38.908Z,19.54
2017-11-01T06:46:38.891Z,19.62
2017-11-01T06:47:38.877Z,19.66
2017-11-01T06:48:38.863Z,19.67
2017-11-01T06:49:38.849Z,19.58
2017-11-01T06:50:38.848Z,19.59
2017-11-01T06:51:38.821Z,19.63
2017-11-01T06:52:38.807Z,19.66
2017-11-01T06:53:38.793Z,19.62
2017-11-01T06:54:38.778Z,19.69
2017-11-01T06:55:38.766Z,19.63
2017-11-01T06:56:38.757Z,19.63
2017-11-01T06:57:38.736Z,19.64
2017-11-01T06:58:38.727Z,19.70
2017-11-01T06:59:38.706Z,19.64
2017-11-01T07:00:38.697Z,19.67
2017-11-01T07:01:38.678Z,19.63
2017-11-01T07:02:38.665Z,19.71
2017-11-01T07:03:38.650Z,19.69
2017-11-01T07:04:38.636Z,19.56
2017-11-01T07:05:38.622Z,19.69
2017-11-01T07:06:38.609Z,19.66
2017-11-01T07:07:38.596Z,19.67
2017-11-01T07:08:38.579Z,19.67
2017-11-01T07:09:38.566Z,19.63
2017-11-01T07:10:38.551Z,19.70
2017-11-01T07:11:38.536Z,19.59
2017-11-01T07:12:38.523Z,19.56
2017-11-01T07:13:38.509Z,19.66
2017-11-01T07:14:38.494Z,19.63
2017-11-01T07:15:38.480Z,19.63
2017-11-01T07:16:38.466Z,19.62
2017-11-01T07:17:38.453Z,19.63
2017-11-01T07:18:38.438Z,19.71
2017-11-01T07:19:38.427Z,19.63
2017-11-01T07:20:38.410Z,19.58
2017-11-01T07:21:38.395Z,19.74
2017-11-01T07:22:38.381Z,19.64
2017-11-01T07:23:38.366Z,19.67
2017-11-01T07:24:38.356Z,19.74
2017-11-01T07:25:38.339Z,19.62
2017-11-01T07:26:38.325Z,19.71
2017-11-01T07:27:38.310Z,19.54
2017-11-01T07:28:38.296Z,19.66
2017-11-01T07:29:38.282Z,19.67
2017-11-01T07:30:38.267Z,19.67
2017-11-01T07:31:38.254Z,19.71
2017-11-01T07:32:38.239Z,19.63
2017-11-01T07:33:38.226Z,19.77
2017-11-01T07:34:38.212Z,19.69
2017-11-01T07:35:38.197Z,19.56
2017-11-01T07:36:38.184Z,19.77
2017-11-01T07:37:38.169Z,19.67
2017-11-01T07:38:38.154Z,19.73
2017-11-01T07:39:38.140Z,19.73
2017-11-01T07:40:38.125Z,19.70
2017-11-01T07:41:38.112Z,19.71
2017-11-01T07:42:38.097Z,19.58
2017-11-01T07:43:38.084Z,19.66
2017-11-01T07:44:38.070Z,19.73
2017-11-01T07:45:38.056Z,19.62
2017-11-01T07:46:38.044Z,19.70
2017-11-01T07:47:38.027Z,19.66
2017-11-01T07:48:38.014Z,19.63
2017-11-01T07:49:37.999Z,19.64
2017-11-01T07:50:37.985Z,19.73
2017-11-01T07:51:37.970Z,19.71
2017-11-01T07:52:37.956Z,19.58
2017-11-01T07:53:37.943Z,19.64
2017-11-01T07:54:37.928Z,19.82
2017-11-01T07:55:37.914Z,19.74
2017-11-01T07:56:37.900Z,19.76
2017-11-01T07:57:37.886Z,19.67
2017-11-01T07:58:37.871Z,19.81
2017-11-01T07:59:37.857Z,19.67
2017-11-01T08:00:37.842Z,19.69
2017-11-01T08:01:37.833Z,19.76
2017-11-01T08:02:37.816Z,19.74
2017-11-01T08:03:37.800Z,19.69
2017-11-01T08:04:37.786Z,19.70
2017-11-01T08:05:37.773Z,19.73
2017-11-01T08:06:37.758Z,19.79
2017-11-01T08:07:37.744Z,19.71
2017-11-01T08:08:37.730Z,19.73
2017-11-01T08:09:37.716Z,19.62
2017-11-01T08:10:37.701Z,19.76
2017-11-01T08:11:37.686Z,19.73
2017-11-01T08:12:37.673Z,19.82
2017-11-01T08:13:37.660Z,19.82
2017-11-01T08:14:37.647Z,19.84
2017-11-01T08:15:37.630Z,19.84
2017-11-01T08:16:37.619Z,19.74
2017-11-01T08:17:37.613Z,19.76
2017-11-01T08:18:37.590Z,19.71
2017-11-01T08:19:37.578Z,19.77
2017-11-01T08:20:37.561Z,19.77
2017-11-01T08:21:37.547Z,19.82
2017-11-01T08:22:37.533Z,19.84
2017-11-01T08:23:37.530Z,19.77
2017-11-01T08:24:37.504Z,19.79
2017-11-01T08:25:37.491Z,19.82
2017-11-01T08:26:37.476Z,19.77
2017-11-01T08:27:37.461Z,19.73
2017-11-01T08:28:37.448Z,19.84
2017-11-01T08:29:37.434Z,19.82
2017-11-01T08:30:37.420Z,19.76
2017-11-01T08:31:37.406Z,19.81
2017-11-01T08:32:37.392Z,19.79
2017-11-01T08:33:37.378Z,19.81
2017-11-01T08:34:37.364Z,19.81
2017-11-01T08:35:37.349Z,19.86
2017-11-01T08:36:37.336Z,19.85
2017-11-01T08:37:37.321Z,19.84
2017-11-01T08:38:37.308Z,19.77
2017-11-01T08:39:37.293Z,19.82
2017-11-01T08:40:37.279Z,19.84
2017-11-01T08:41:37.265Z,19.77
2017-11-01T08:42:37.252Z,19.88
2017-11-01T08:43:37.237Z,19.77
2017-11-01T08:44:37.223Z,19.77
2017-11-01T08:45:37.209Z,19.76
2017-11-01T08:46:37.194Z,19.82
2017-11-01T08:47:37.181Z,19.76
2017-11-01T08:48:37.167Z,19.76
2017-11-01T08:49:37.152Z,19.77
2017-11-01T08:50:37.139Z,19.77
2017-11-01T08:51:37.124Z,19.81
2017-11-01T08:52:37.111Z,19.79
2017-11-01T08:53:37.097Z,19.88
2017-11-01T08:54:37.083Z,19.86
2017-11-01T08:55:37.069Z,19.81
2017-11-01T08:56:37.056Z,19.81
2017-11-01T08:57:37.041Z,19.88
2017-11-01T08:58:37.027Z,19.92
2017-11-01T08:59:37.012Z,19.88
2017-11-01T09:00:36.998Z,19.94
2017-11-01T09:01:36.984Z,19.92
2017-11-01T09:02:36.972Z,19.94
2017-11-01T09:03:36.955Z,19.92
2017-11-01T09:04:36.951Z,19.99
2017-11-01T09:05:36.927Z,19.95
2017-11-01T09:06:36.914Z,20.09
2017-11-01T09:07:36.910Z,20.02
2017-11-01T09:08:36.886Z,20.04
2017-11-01T09:09:36.872Z,20.04
2017-11-01T09:10:36.858Z,20.02
2017-11-01T09:11:36.845Z,20.03
2017-11-01T09:12:36.830Z,20.07
2017-11-01T09:13:36.817Z,20.02
2017-11-01T09:14:36.803Z,20.04
2017-11-01T09:15:36.787Z,20.00
2017-11-01T09:16:36.773Z,19.94
2017-11-01T09:17:36.760Z,19.95
2017-11-01T09:18:36.747Z,19.96
2017-11-01T09:19:36.732Z,19.95
2017-11-01T09:20:36.718Z,19.95
2017-11-01T09:21:36.704Z,19.94
2017-11-01T09:22:36.691Z,19.89
2017-11-01T09:23:36.676Z,19.95
2017-11-01T09:24:36.663Z,19.96
2017-11-01T09:25:36.649Z,19.99
2017-11-01T09:26:36.635Z,19.88
2017-11-01T09:27:36.622Z,19.94
2017-11-01T09:28:36.608Z,19.99
2017-11-01T09:29:36.593Z,20.02
2017-11-01T09:30:36.580Z,20.03
2017-11-01T09:31:36.564Z,19.94
2017-11-01T09:32:36.552Z,19.96
2017-11-01T09:33:36.538Z,19.99
2017-11-01T09:34:36.524Z,19.99
2017-11-01T09:35:36.509Z,20.02
2017-11-01T09:36:36.495Z,19.94
2017-11-01T09:37:36.482Z,19.94
2017-11-01T09:38:36.468Z,19.96
2017-11-01T09:39:36.454Z,19.96
2017-11-01T09:40:36.440Z,20.07
2017-11-01T09:41:36.426Z,20.03
2017-11-01T09:42:36.412Z,19.99
2017-11-01T09:43:36.398Z,20.03
2017-11-01T09:44:36.385Z,20.06
2017-11-01T09:45:36.370Z,20.09
2017-11-01T09:46:36.370Z,20.14
2017-11-01T09:47:36.343Z,20.16
2017-11-01T09:48:36.329Z,20.10
2017-11-01T09:49:36.314Z,20.24
2017-11-01T09:50:36.302Z,20.22
2017-11-01T09:51:36.286Z,20.21
2017-11-01T09:52:36.273Z,20.16
2017-11-01T09:53:36.260Z,20.24
2017-11-01T09:54:36.245Z,20.18
2017-11-01T09:55:36.232Z,20.21
2017-11-01T09:56:36.219Z,20.19
2017-11-01T09:57:36.204Z,20.13
2017-11-01T09:58:36.195Z,20.18
2017-11-01T09:59:36.175Z,20.13
2017-11-01T10:00:36.162Z,20.16
2017-11-01T10:01:36.149Z,20.18
2017-11-01T10:02:36.135Z,20.19
2017-11-01T10:03:36.121Z,20.28
2017-11-01T10:04:36.107Z,20.14
2017-11-01T10:05:36.093Z,20.18
2017-11-01T10:06:36.080Z,20.18
2017-11-01T10:07:36.064Z,20.22
2017-11-01T10:08:36.052Z,20.24
2017-11-01T10:09:36.038Z,20.22
2017-11-01T10:10:36.027Z,20.16
2017-11-01T10:11:36.012Z,20.13
2017-11-01T10:12:35.996Z,20.14
2017-11-01T10:13:35.983Z,20.19
2017-11-01T10:14:35.970Z,20.14
2017-11-01T10:15:35.955Z,20.09
2017-11-01T10:16:35.942Z,20.13
2017-11-01T10:17:35.957Z,20.14
2017-11-01T10:18:35.914Z,20.16
2017-11-01T10:19:35.900Z,20.09
2017-11-01T10:20:35.887Z,20.13
2017-11-01T10:21:35.872Z,20.10
2017-11-01T10:22:35.859Z,20.21
2017-11-01T10:23:35.845Z,20.21
2017-11-01T10:24:35.830Z,20.19
2017-11-01T10:25:35.867Z,20.24
2017-11-01T10:26:35.803Z,20.16
2017-11-01T10:27:35.796Z,20.26
2017-11-01T10:28:35.776Z,20.16
2017-11-01T10:29:35.762Z,20.22
2017-11-01T10:30:35.748Z,20.21
2017-11-01T10:31:35.734Z,20.18
2017-11-01T10:32:35.720Z,20.22
2017-11-01T10:33:35.707Z,20.21
2017-11-01T10:34:35.693Z,20.25
2017-11-01T10:35:35.679Z,20.14
2017-11-01T10:36:35.665Z,20.24
2017-11-01T10:37:35.652Z,20.25
2017-11-01T10:38:35.638Z,20.19
2017-11-01T10:39:35.623Z,20.18
2017-11-01T10:40:35.610Z,20.21
2017-11-01T10:41:35.596Z,20.22
2017-11-01T10:42:35.587Z,20.19
2017-11-01T10:43:35.567Z,20.24
2017-11-01T10:44:35.560Z,20.21
2017-11-01T10:45:35.541Z,20.19
2017-11-01T10:46:35.528Z,20.29
2017-11-01T10:47:35.513Z,20.21
2017-11-01T10:48:35.500Z,20.22
2017-11-01T10:49:35.486Z,20.28
2017-11-01T10:50:35.472Z,20.25
2017-11-01T10:51:35.458Z,20.26
2017-11-01T10:52:35.445Z,20.31
2017-11-01T10:53:35.432Z,20.29
2017-11-01T10:54:35.417Z,20.29
2017-11-01T10:55:35.554Z,20.37
2017-11-01T10:56:35.391Z,20.36
2017-11-01T10:57:35.377Z,20.41
2017-11-01T10:58:35.367Z,20.43
2017-11-01T10:59:35.348Z,20.56
2017-11-01T11:00:35.335Z,20.51
2017-11-01T11:01:35.322Z,20.51
2017-11-01T11:02:35.307Z,20.50
2017-11-01T11:03:35.293Z,20.48
2017-11-01T11:04:35.280Z,20.48
2017-11-01T11:05:35.315Z,20.63
2017-11-01T11:06:35.253Z,20.63
2017-11-01T11:07:35.239Z,20.65
2017-11-01T11:08:35.226Z,20.82
2017-11-01T11:09:35.212Z,20.82
2017-11-01T11:10:35.199Z,20.88
2017-11-01T11:11:35.185Z,20.82
2017-11-01T11:12:35.172Z,20.81
2017-11-01T11:13:35.158Z,20.85
2017-11-01T11:14:35.144Z,20.93
2017-11-01T11:15:35.131Z,20.97
2017-11-01T11:16:35.118Z,21.03
2017-11-01T11:17:35.105Z,21.03
2017-11-01T11:18:35.092Z,20.97
2017-11-01T11:19:35.078Z,20.99
2017-11-01T11:20:35.065Z,21.07
2017-11-01T11:21:35.052Z,21.18
2017-11-01T11:22:35.039Z,21.18
2017-11-01T11:23:35.026Z,21.25
2017-11-01T11:24:35.013Z,21.25
2017-11-01T11:25:35.000Z,21.29
2017-11-01T11:26:34.987Z,21.27
2017-11-01T11:27:34.973Z,21.27
2017-11-01T11:28:34.961Z,21.32
2017-11-01T11:29:34.949Z,21.35
2017-11-01T11:30:34.936Z,21.40
2017-11-01T11:31:34.923Z,21.37
2017-11-01T11:32:34.909Z,21.40
2017-11-01T11:33:34.900Z,21.37
2017-11-01T11:34:34.884Z,21.35
2017-11-01T11:35:34.875Z,21.40
2017-11-01T11:36:34.857Z,21.40
2017-11-01T11:37:34.844Z,21.33
2017-11-01T11:38:34.834Z,21.45
2017-11-01T11:39:34.820Z,21.45
2017-11-01T11:40:34.808Z,21.36
2017-11-01T11:41:34.795Z,21.36
2017-11-01T11:42:34.783Z,21.36
2017-11-01T11:43:34.769Z,21.42
2017-11-01T11:44:34.756Z,21.50
2017-11-01T11:45:34.744Z,21.58
2017-11-01T11:46:34.746Z,21.55
2017-11-01T11:47:34.719Z,21.62
2017-11-01T11:48:34.706Z,21.62
2017-11-01T11:49:34.694Z,21.75
2017-11-01T11:50:34.681Z,21.76
2017-11-01T11:51:34.668Z,21.92
2017-11-01T11:52:34.656Z,21.91
2017-11-01T11:53:34.644Z,21.96
2017-11-01T11:54:34.633Z,21.99
2017-11-01T11:55:34.619Z,22.07
2017-11-01T11:56:34.606Z,22.06
2017-11-01T11:57:34.595Z,22.15
2017-11-01T11:58:34.584Z,22.14
2017-11-01T11:59:34.571Z,22.22
2017-11-01T12:00:34.558Z,22.25
2017-11-01T12:01:34.553Z,22.32
2017-11-01T12:02:34.535Z,22.32
2017-11-01T12:03:34.522Z,22.35
2017-11-01T12:04:34.511Z,22.28
2017-11-01T12:05:34.500Z,22.28
2017-11-01T12:06:34.488Z,22.29
2017-11-01T12:07:34.475Z,22.25
2017-11-01T12:08:34.463Z,22.25
2017-11-01T12:09:34.452Z,22.13
2017-11-01T12:10:34.441Z,22.11
2017-11-01T12:11:34.428Z,22.06
2017-11-01T12:12:34.417Z,21.98
2017-11-01T12:13:34.405Z,22.13
2017-11-01T12:14:34.394Z,22.20
2017-11-01T12:15:34.380Z,22.17
2017-11-01T12:16:34.370Z,22.20
2017-11-01T12:17:34.358Z,22.26
2017-11-01T12:18:34.349Z,22.26
2017-11-01T12:19:34.334Z,22.25
2017-11-01T12:20:34.322Z,22.29
2017-11-01T12:21:34.310Z,22.25
2017-11-01T12:22:34.298Z,22.38
2017-11-01T12:23:34.287Z,22.36
2017-11-01T12:24:34.276Z,22.36
2017-11-01T12:25:34.263Z,22.36
2017-11-01T12:26:34.252Z,22.38
2017-11-01T12:27:34.239Z,22.47
2017-11-01T12:28:34.226Z,22.45
2017-11-01T12:29:34.216Z,22.51
2017-11-01T12:30:34.205Z,22.47
2017-11-01T12:31:34.198Z,22.51
2017-11-01T12:32:34.181Z,22.65
2017-11-01T12:33:34.169Z,22.63
2017-11-01T12:34:34.158Z,22.66
2017-11-01T12:35:34.146Z,22.68
2017-11-01T12:36:34.135Z,22.60
2017-11-01T12:37:34.124Z,22.59
2017-11-01T12:38:34.112Z,22.59
2017-11-01T12:39:34.099Z,22.55
2017-11-01T12:40:34.092Z,22.54
2017-11-01T12:41:34.077Z,22.53
2017-11-01T12:42:34.066Z,22.47
2017-11-01T12:43:34.059Z,22.53
2017-11-01T12:44:34.041Z,22.53
2017-11-01T12:45:34.030Z,22.48
2017-11-01T12:46:34.023Z,22.47
2017-11-01T12:47:34.006Z,22.50
2017-11-01T12:48:33.994Z,22.39
2017-11-01T12:49:33.983Z,22.41
2017-11-01T12:50:33.970Z,22.41
2017-11-01T12:51:33.959Z,22.43
2017-11-01T12:52:33.947Z,22.30